createdAt,value
2022-11-03T00:00:56.907Z,98798.34
2022-11-03T00:03:58.681Z,98799.88
2022-11-03T00:07:00.609Z,98789.16
2022-11-03T00:10:02.472Z,98801.66
2022-11-03T00:13:04.526Z,98804.03
2022-11-03T00:16:07.476Z,98801.66
2022-11-03T00:19:09.969Z,98805.44
2022-11-03T00:22:11.992Z,98799.50
2022-11-03T00:25:14.921Z,98798.06
2022-11-03T00:28:16.718Z,98795.91
2022-11-03T00:31:19.577Z,98794.00
2022-11-03T00:34:21.481Z,98796.69
2022-11-03T00:37:23.295Z,98802.63
2022-11-03T00:40:25.020Z,98795.94
2022-11-03T00:43:28.133Z,98797.03
2022-11-03T00:46:30.675Z,98800.09
2022-11-03T00:49:32.428Z,98804.50
2022-11-03T00:52:34.151Z,98809.81
2022-11-03T00:55:35.890Z,98811.25
2022-11-03T00:58:37.775Z,98811.97
2022-11-03T01:01:46.985Z,98801.88
2022-11-03T01:05:07.845Z,98809.75
2022-11-03T01:08:09.577Z,98816.75
2022-11-03T01:11:32.262Z,98814.16
2022-11-03T01:14:39.080Z,98815.97
2022-11-03T01:17:41.546Z,98813.41
2022-11-03T01:20:43.390Z,98812.94
2022-11-03T01:23:45.121Z,98814.16
2022-11-03T01:26:46.959Z,98818.63
2022-11-03T01:29:48.814Z,98827.00
2022-11-03T01:32:50.569Z,98822.16
2022-11-03T01:35:55.412Z,98825.94
2022-11-03T01:38:57.470Z,98825.50
2022-11-03T01:41:59.401Z,98809.44
2022-11-03T01:45:01.300Z,98807.81
2022-11-03T01:48:02.991Z,98812.63
2022-11-03T01:51:06.055Z,98812.22
2022-11-03T01:54:11.784Z,98803.50
2022-11-03T01:57:16.230Z,98800.84
2022-11-03T02:00:18.681Z,98796.44
2022-11-03T02:03:22.653Z,98795.63
2022-11-03T02:06:27.097Z,98798.50
2022-11-03T02:09:29.456Z,98794.47
2022-11-03T02:12:32.143Z,98794.13
2022-11-03T02:15:34.459Z,98791.66
2022-11-03T02:18:36.317Z,98783.84
2022-11-03T02:21:45.647Z,98782.63
2022-11-03T02:25:00.242Z,98790.09
2022-11-03T02:28:03.091Z,98783.88
2022-11-03T02:31:36.122Z,98778.94
2022-11-03T02:34:47.255Z,98778.03
2022-11-03T02:37:53.133Z,98770.75
2022-11-03T02:40:58.914Z,98769.19
2022-11-03T02:44:01.357Z,98761.94
2022-11-03T02:47:07.304Z,98777.66
2022-11-03T02:50:10.737Z,98767.97
2022-11-03T02:53:14.018Z,98769.50
2022-11-03T02:56:20.646Z,98759.56
2022-11-03T02:59:28.192Z,98766.84
2022-11-03T03:02:38.493Z,98753.78
2022-11-03T03:05:41.675Z,98751.56
2022-11-03T03:08:49.040Z,98747.81
2022-11-03T03:11:52.079Z,98738.50
2022-11-03T03:14:58.364Z,98744.56
2022-11-03T03:18:23.680Z,98750.22
2022-11-03T03:21:33.730Z,98744.53
2022-11-03T03:25:00.180Z,98751.09
2022-11-03T03:28:18.837Z,98746.81
2022-11-03T03:31:21.884Z,98747.38
2022-11-03T03:34:34.712Z,98739.59
2022-11-03T03:37:40.908Z,98735.50
2022-11-03T03:40:44.355Z,98729.75
2022-11-03T03:43:46.592Z,98730.69
2022-11-03T03:46:57.352Z,98731.72
2022-11-03T03:49:59.292Z,98726.78
2022-11-03T03:53:02.510Z,98724.53
2022-11-03T03:56:05.961Z,98731.88
2022-11-03T03:59:08.573Z,98727.78
2022-11-03T04:02:11.705Z,98725.66
2022-11-03T04:05:13.743Z,98721.06
2022-11-03T04:08:17.151Z,98730.03
2022-11-03T04:11:37.449Z,98730.22
2022-11-03T04:14:57.839Z,98740.97
2022-11-03T04:18:18.186Z,98738.59
2022-11-03T04:21:38.744Z,98734.19
2022-11-03T04:24:40.623Z,98736.44
2022-11-03T04:27:42.365Z,98742.63
2022-11-03T04:30:44.137Z,98735.13
2022-11-03T04:33:46.442Z,98742.00
2022-11-03T04:36:48.223Z,98728.03
2022-11-03T04:39:50.213Z,98735.84
2022-11-03T04:42:52.146Z,98732.25
2022-11-03T04:45:53.862Z,98739.09
2022-11-03T04:48:59.625Z,98732.22
2022-11-03T04:52:01.589Z,98735.72
2022-11-03T04:55:06.522Z,98733.00
2022-11-03T04:58:28.059Z,98735.28
2022-11-03T05:01:30.164Z,98727.56
2022-11-03T05:04:32.172Z,98732.94
2022-11-03T05:07:35.405Z,98733.56
2022-11-03T05:10:37.575Z,98728.56
2022-11-03T05:13:39.343Z,98732.94
2022-11-03T05:16:41.904Z,98732.88
2022-11-03T05:19:44.212Z,98730.53
2022-11-03T05:22:50.878Z,98732.44
2022-11-03T05:25:54.764Z,98719.69
2022-11-03T05:29:24.606Z,98723.69
2022-11-03T05:32:29.461Z,98724.63
2022-11-03T05:35:31.946Z,98726.09
2022-11-03T05:38:35.287Z,98728.88
2022-11-03T05:41:38.497Z,98734.84
2022-11-03T05:44:40.977Z,98733.94
2022-11-03T05:47:42.910Z,98730.22
2022-11-03T05:50:44.817Z,98731.09
2022-11-03T05:53:50.870Z,98732.03
2022-11-03T05:56:53.583Z,98729.25
2022-11-03T05:59:56.001Z,98730.31
2022-11-03T06:03:00.354Z,98737.19
2022-11-03T06:06:02.643Z,98728.72
2022-11-03T06:09:14.067Z,98731.19
2022-11-03T06:12:19.571Z,98729.19
2022-11-03T06:15:33.472Z,98726.91
2022-11-03T06:18:37.428Z,98730.50
2022-11-03T06:21:44.433Z,98734.78
2022-11-03T06:24:47.523Z,98730.50
2022-11-03T06:27:52.192Z,98725.91
2022-11-03T06:30:54.621Z,98733.81
2022-11-03T06:33:58.111Z,98733.41
2022-11-03T06:37:12.662Z,98741.75
2022-11-03T06:40:15.665Z,98743.00
2022-11-03T06:43:28.258Z,98751.78
2022-11-03T06:46:31.353Z,98740.31
2022-11-03T06:49:35.168Z,98747.38
2022-11-03T06:52:44.036Z,98751.31
2022-11-03T06:55:47.310Z,98756.38
2022-11-03T06:58:51.531Z,98749.13
2022-11-03T07:01:56.185Z,98761.22
2022-11-03T07:04:58.930Z,98758.63
2022-11-03T07:08:04.294Z,98747.25
2022-11-03T07:11:15.293Z,98749.47
2022-11-03T07:14:22.554Z,98746.91
2022-11-03T07:17:26.786Z,98742.66
2022-11-03T07:20:29.891Z,98741.94
2022-11-03T07:23:31.852Z,98740.72
2022-11-03T07:26:34.812Z,98740.53
2022-11-03T07:29:37.444Z,98737.19
2022-11-03T07:32:40.314Z,98738.41
2022-11-03T07:36:13.211Z,98734.38
2022-11-03T07:39:06.664Z,98739.59
2022-11-03T07:42:19.489Z,98735.78
2022-11-03T07:45:42.920Z,98727.91
2022-11-03T07:48:47.119Z,98721.00
2022-11-03T07:51:51.227Z,98725.75
2022-11-03T07:54:55.309Z,98724.28
2022-11-03T07:57:58.214Z,98719.53
2022-11-03T08:01:01.598Z,98714.13
2022-11-03T08:04:06.621Z,98710.44
2022-11-03T08:07:10.275Z,98706.66
2022-11-03T08:10:14.044Z,98717.16
2022-11-03T08:13:17.672Z,98706.59
2022-11-03T08:16:20.645Z,98702.09
2022-11-03T08:19:23.085Z,98688.31
2022-11-03T08:22:26.356Z,98699.56
2022-11-03T08:25:29.077Z,98698.97
2022-11-03T08:28:32.751Z,98694.06
2022-11-03T08:31:35.443Z,98677.56
2022-11-03T08:34:39.886Z,98688.69
2022-11-03T08:37:42.404Z,98678.34
2022-11-03T08:40:44.585Z,98667.03
2022-11-03T08:43:47.439Z,98663.94
2022-11-03T08:46:50.387Z,98659.41
2022-11-03T08:49:52.535Z,98657.22
2022-11-03T08:52:54.960Z,98656.72
2022-11-03T08:55:58.173Z,98652.91
2022-11-03T08:59:00.343Z,98649.88
2022-11-03T09:02:02.836Z,98660.09
2022-11-03T09:05:06.149Z,98652.63
2022-11-03T09:11:32.058Z,98641.25
2022-11-03T09:14:34.288Z,98630.44
2022-11-03T09:17:36.675Z,98629.38
2022-11-03T09:20:39.831Z,98638.22
2022-11-03T09:23:45.021Z,98637.41
2022-11-03T09:26:46.895Z,98624.84
2022-11-03T09:30:12.289Z,98625.38
2022-11-03T09:33:18.895Z,98631.84
2022-11-03T09:36:21.029Z,98614.94
2022-11-03T09:39:23.127Z,98611.31
2022-11-03T09:42:25.700Z,98600.66
2022-11-03T09:45:27.904Z,98601.78
2022-11-03T09:48:30.438Z,98598.59
2022-11-03T09:51:32.817Z,98592.88
2022-11-03T09:54:35.292Z,98582.94
2022-11-03T09:57:37.345Z,98578.88
2022-11-03T10:00:39.844Z,98581.59
2022-11-03T10:03:42.065Z,98566.69
2022-11-03T10:06:44.314Z,98566.22
2022-11-03T10:09:48.420Z,98566.22
2022-11-03T10:12:53.416Z,98558.38
2022-11-03T10:15:56.473Z,98554.16
2022-11-03T10:18:58.486Z,98556.53
2022-11-03T10:22:00.443Z,98548.06
2022-11-03T10:25:30.548Z,98551.22
2022-11-03T10:28:32.588Z,98539.38
2022-11-03T10:31:39.825Z,98538.19
2022-11-03T10:34:42.143Z,98529.34
2022-11-03T10:37:45.069Z,98528.81
2022-11-03T10:40:48.524Z,98527.66
2022-11-03T10:44:05.653Z,98514.69
2022-11-03T10:47:42.318Z,98503.41
2022-11-03T10:50:45.019Z,98509.16
2022-11-03T10:53:46.853Z,98495.00
2022-11-03T10:56:51.057Z,98481.94
2022-11-03T10:59:54.514Z,98479.28
2022-11-03T11:03:00.105Z,98470.41
2022-11-03T11:06:02.330Z,98464.66
2022-11-03T11:09:05.451Z,98464.75
2022-11-03T11:12:17.945Z,98457.31
2022-11-03T11:15:35.300Z,98447.75
2022-11-03T11:19:00.193Z,98446.28
2022-11-03T11:22:13.364Z,98445.47
2022-11-03T11:25:16.166Z,98448.41
2022-11-03T11:28:19.668Z,98441.84
2022-11-03T11:31:27.449Z,98432.44
2022-11-03T11:34:35.473Z,98423.66
2022-11-03T11:37:38.531Z,98421.03
2022-11-03T11:40:50.540Z,98409.81
2022-11-03T11:43:54.709Z,98411.63
2022-11-03T11:46:56.765Z,98403.84
2022-11-03T11:50:09.141Z,98394.25
2022-11-03T11:53:13.033Z,98390.91
2022-11-03T11:56:16.724Z,98388.75
2022-11-03T11:59:25.346Z,98373.25
2022-11-03T12:02:30.623Z,98379.59
2022-11-03T12:05:34.356Z,98373.34
2022-11-03T12:08:36.525Z,98376.16
2022-11-03T12:11:56.792Z,98367.28
2022-11-03T12:15:00.812Z,98360.31
2022-11-03T12:18:39.099Z,98354.69
2022-11-03T12:21:48.266Z,98349.28
2022-11-03T12:24:58.782Z,98343.72
2022-11-03T12:28:01.816Z,98343.25
2022-11-03T12:31:04.974Z,98331.28
2022-11-03T12:34:07.377Z,98326.44
2022-11-03T12:37:10.166Z,98320.72
2022-11-03T12:40:14.737Z,98318.78
2022-11-03T12:43:17.539Z,98317.91
2022-11-03T12:46:21.721Z,98303.75
2022-11-03T12:49:23.695Z,98307.56
2022-11-03T12:52:25.627Z,98288.22
2022-11-03T12:58:30.674Z,98285.47
2022-11-03T13:01:33.629Z,98288.78
2022-11-03T13:04:35.810Z,98280.22
2022-11-03T13:07:38.352Z,98277.47
2022-11-03T13:10:41.197Z,98277.66
2022-11-03T13:13:44.254Z,98272.72
2022-11-03T13:16:46.828Z,98261.72
2022-11-03T13:19:54.469Z,98261.38
2022-11-03T13:22:57.870Z,98249.72
2022-11-03T13:26:00.209Z,98255.09
2022-11-03T13:29:02.480Z,98254.56
2022-11-03T13:32:05.560Z,98249.06
2022-11-03T13:35:12.487Z,98247.34
2022-11-03T13:38:16.406Z,98237.56
2022-11-03T13:41:18.972Z,98234.63
2022-11-03T13:44:21.745Z,98232.13
2022-11-03T13:47:34.385Z,98230.03
2022-11-03T13:50:47.513Z,98225.56
2022-11-03T14:00:35.277Z,98198.13
2022-11-03T14:07:00.166Z,98190.47
2022-11-03T14:10:04.013Z,98191.22
2022-11-03T14:13:08.302Z,98193.50
2022-11-03T14:16:11.434Z,98193.50
2022-11-03T14:19:13.450Z,98191.19
2022-11-03T14:22:15.554Z,98198.81
2022-11-03T14:25:20.468Z,98189.59
2022-11-03T14:28:26.228Z,98186.13
2022-11-03T14:31:29.208Z,98188.63
2022-11-03T14:34:31.480Z,98173.28
2022-11-03T14:37:33.885Z,98176.28
2022-11-03T14:40:54.842Z,98176.09
2022-11-03T14:43:57.338Z,98161.56
2022-11-03T14:47:01.787Z,98167.56
2022-11-03T14:50:05.490Z,98162.63
2022-11-03T14:53:08.337Z,98152.75
2022-11-03T14:56:12.264Z,98151.78
2022-11-03T14:59:14.528Z,98149.97
2022-11-03T15:02:17.469Z,98142.22
2022-11-03T15:05:45.868Z,98145.00
2022-11-03T15:08:53.446Z,98145.00
2022-11-03T15:11:58.377Z,98135.63
2022-11-03T15:15:04.506Z,98134.00
2022-11-03T15:18:08.000Z,98138.59
2022-11-03T15:21:10.314Z,98133.97
2022-11-03T15:27:39.044Z,98129.00
2022-11-03T15:30:41.477Z,98128.69
2022-11-03T15:33:43.436Z,98122.88
2022-11-03T15:36:45.628Z,98119.09
2022-11-03T15:39:47.851Z,98127.31
2022-11-03T15:42:49.960Z,98119.44
2022-11-03T15:45:52.133Z,98117.78
2022-11-03T15:48:56.757Z,98115.94
2022-11-03T15:51:58.714Z,98119.25
2022-11-03T15:55:00.609Z,98117.09
2022-11-03T15:58:02.797Z,98107.22
2022-11-03T16:01:05.682Z,98104.91
2022-11-03T16:04:07.793Z,98100.94
2022-11-03T16:07:09.688Z,98099.97
2022-11-03T16:10:17.958Z,98084.13
2022-11-03T16:13:19.898Z,98086.13
2022-11-03T16:16:22.254Z,98090.72
2022-11-03T16:19:24.261Z,98087.94
2022-11-03T16:22:27.100Z,98085.97
2022-11-03T16:25:29.211Z,98082.19
2022-11-03T16:28:31.606Z,98081.53
2022-11-03T16:31:33.458Z,98079.84
2022-11-03T16:34:35.227Z,98077.06
2022-11-03T16:37:37.742Z,98078.72
2022-11-03T16:40:39.793Z,98076.22
2022-11-03T16:43:41.800Z,98068.31
2022-11-03T16:46:43.647Z,98060.41
2022-11-03T16:49:45.974Z,98059.44
2022-11-03T16:52:49.362Z,98054.31
2022-11-03T16:55:51.350Z,98079.13
2022-11-03T16:58:53.240Z,98074.69
2022-11-03T17:01:57.450Z,98064.47
2022-11-03T17:04:59.367Z,98056.06
2022-11-03T17:08:02.397Z,98060.34
2022-11-03T17:11:04.545Z,98055.53
2022-11-03T17:14:09.296Z,98044.50
2022-11-03T17:17:11.581Z,98035.44
2022-11-03T17:20:13.660Z,98038.22
2022-11-03T17:23:16.048Z,98036.53
2022-11-03T17:26:21.750Z,98034.50
2022-11-03T17:29:31.707Z,98038.25
2022-11-03T17:32:39.665Z,98025.22
2022-11-03T17:35:43.257Z,98026.47
2022-11-03T17:38:45.489Z,98028.75
2022-11-03T17:41:47.834Z,98018.06
2022-11-03T17:44:51.268Z,98022.03
2022-11-03T17:47:54.305Z,98028.28
2022-11-03T17:50:56.589Z,98026.06
2022-11-03T17:53:59.390Z,98029.19
2022-11-03T17:57:02.962Z,98022.63
2022-11-03T18:00:06.071Z,98026.25
2022-11-03T18:03:15.276Z,98019.38
2022-11-03T18:06:19.512Z,98017.56
2022-11-03T18:09:22.107Z,98009.34
2022-11-03T18:12:45.818Z,98004.22
2022-11-03T18:15:52.988Z,98012.31
2022-11-03T18:18:55.407Z,98008.69
2022-11-03T18:21:57.912Z,98014.41
2022-11-03T18:25:00.289Z,98000.41
2022-11-03T18:28:02.837Z,98002.88
2022-11-03T18:31:06.700Z,98006.38
2022-11-03T18:34:31.624Z,98002.47
2022-11-03T18:37:35.938Z,97999.84
2022-11-03T18:40:41.068Z,97987.31
2022-11-03T18:43:43.347Z,97978.94
2022-11-03T18:46:48.555Z,97970.53
2022-11-03T18:49:54.667Z,97973.84
2022-11-03T18:52:59.834Z,97961.53
2022-11-03T18:56:02.556Z,97969.72
2022-11-03T18:59:05.233Z,97971.16
2022-11-03T19:02:15.666Z,97964.94
2022-11-03T19:05:19.027Z,97960.00
2022-11-03T19:08:41.184Z,97951.13
2022-11-03T19:11:43.987Z,97945.88
2022-11-03T19:14:49.054Z,97939.91
2022-11-03T19:17:58.337Z,97937.78
2022-11-03T19:21:02.217Z,97937.63
2022-11-03T19:24:05.139Z,97936.97
2022-11-03T19:27:17.068Z,97940.53
2022-11-03T19:30:21.524Z,97936.28
2022-11-03T19:33:33.958Z,97933.34
2022-11-03T19:36:43.719Z,97929.03
2022-11-03T19:39:49.014Z,97915.06
2022-11-03T19:42:52.527Z,97914.56
2022-11-03T19:45:59.614Z,97910.63
2022-11-03T19:49:01.770Z,97905.34
2022-11-03T19:52:06.434Z,97905.03
2022-11-03T19:55:13.141Z,97906.84
2022-11-03T19:58:19.647Z,97907.69
2022-11-03T20:01:22.353Z,97908.59
2022-11-03T20:04:25.032Z,97899.94
2022-11-03T20:07:31.448Z,97906.00
2022-11-03T20:10:36.053Z,97899.63
2022-11-03T20:13:40.991Z,97902.56
2022-11-03T20:16:43.358Z,97903.03
2022-11-03T20:19:45.715Z,97902.34
2022-11-03T20:22:51.924Z,97892.84
2022-11-03T20:25:54.779Z,97897.78
2022-11-03T20:28:57.198Z,97897.59
2022-11-03T20:31:59.741Z,97892.34
2022-11-03T20:35:02.198Z,97888.22
2022-11-03T20:38:04.160Z,97889.41
2022-11-03T20:41:13.219Z,97891.22
2022-11-03T20:44:16.785Z,97879.50
2022-11-03T20:47:19.274Z,97871.13
2022-11-03T20:50:21.375Z,97871.16
2022-11-03T20:53:25.611Z,97865.25
2022-11-03T20:56:28.547Z,97859.47
2022-11-03T20:59:33.247Z,97854.72
2022-11-03T21:02:38.080Z,97848.81
2022-11-03T21:05:40.052Z,97851.41
2022-11-03T21:08:43.613Z,97848.59
2022-11-03T21:11:46.499Z,97835.16
2022-11-03T21:15:07.561Z,97821.34
2022-11-03T21:18:33.918Z,97809.72
2022-11-03T21:21:36.551Z,97813.97
2022-11-03T21:24:38.592Z,97817.25
2022-11-03T21:27:42.150Z,97807.91
2022-11-03T21:30:44.417Z,97807.75
2022-11-03T21:33:46.721Z,97805.78
2022-11-03T21:36:48.895Z,97793.13
2022-11-03T21:39:50.974Z,97796.44
2022-11-03T21:43:11.661Z,97795.28
2022-11-03T21:46:13.571Z,97789.38
2022-11-03T21:49:34.168Z,97776.25
2022-11-03T21:52:36.954Z,97772.94
2022-11-03T21:55:39.209Z,97763.94
2022-11-03T21:58:41.658Z,97756.53
2022-11-03T22:01:43.887Z,97757.19
2022-11-03T22:04:46.357Z,97757.84
2022-11-03T22:07:48.478Z,97749.59
2022-11-03T22:10:50.816Z,97742.41
2022-11-03T22:13:58.343Z,97746.22
2022-11-03T22:20:20.405Z,97737.47
2022-11-03T22:24:00.387Z,97745.41
2022-11-03T22:27:02.372Z,97733.53
2022-11-03T22:30:23.520Z,97730.59
2022-11-03T22:33:26.940Z,97720.06
2022-11-03T22:36:28.830Z,97720.06
2022-11-03T22:39:49.306Z,97716.97
2022-11-03T22:43:10.154Z,97701.72
2022-11-03T22:46:14.150Z,97691.00
2022-11-03T22:49:16.031Z,97690.69
2022-11-03T22:52:18.018Z,97684.94
2022-11-03T22:55:19.777Z,97679.53
2022-11-03T22:58:24.312Z,97674.13
2022-11-03T23:01:28.618Z,97670.16
2022-11-03T23:04:30.574Z,97663.91
2022-11-03T23:07:40.810Z,97655.41
2022-11-03T23:10:43.483Z,97657.22
2022-11-03T23:13:57.885Z,97640.28
2022-11-03T23:16:59.567Z,97644.22
2022-11-03T23:20:20.028Z,97644.41
2022-11-03T23:23:40.396Z,97631.72
2022-11-03T23:26:42.964Z,97628.78
2022-11-03T23:29:44.864Z,97617.63
2022-11-03T23:32:46.880Z,97626.16
2022-11-03T23:35:48.924Z,97609.59
2022-11-03T23:38:50.800Z,97611.69
2022-11-03T23:41:52.668Z,97608.44
2022-11-03T23:45:13.115Z,97608.28
2022-11-03T23:48:33.610Z,97606.63
2022-11-03T23:51:36.620Z,97612.69
2022-11-03T23:54:38.570Z,97593.63
2022-11-03T23:57:58.889Z,97584.78
